sensor_id;sensor_type;location;lat;lon;timestamp;pressure;altitude;pressure_sealevel;temperature;humidity
69198;BME280;56311;50.298;8.514;2023-09-30T00:00:01;98530.0;;;18.3;79.1
69198;BME280;56311;50.298;8.514;2023-09-30T00:02:01;98530.0;;;18.3;79.1
69198;BME280;56311;50.298;8.514;2023-09-30T00:04:00;98540.0;;;18.6;78.2
69198;BME280;56311;50.298;8.514;2023-09-30T00:06:00;98540.0;;;18.8;77.0
69198;BME280;56311;50.298;8.514;2023-09-30T00:08:00;98540.0;;;18.4;78.1
69198;BME280;56311;50.298;8.514;2023-09-30T00:10:00;98550.0;;;18.7;77.1
69198;BME280;56311;50.298;8.514;2023-09-30T00:12:00;98560.0;;;19.0;76.0
69198;BME280;56311;50.298;8.514;2023-09-30T00:14:00;98560.0;;;19.0;75.6
69198;BME280;56311;50.298;8.514;2023-09-30T00:16:00;98560.0;;;18.8;76.2
69198;BME280;56311;50.298;8.514;2023-09-30T00:18:00;98570.0;;;19.0;75.3
69198;BME280;56311;50.298;8.514;2023-09-30T00:20:00;98570.0;;;18.8;75.5
69198;BME280;56311;50.298;8.514;2023-09-30T00:22:00;98570.0;;;18.9;75.4
69198;BME280;56311;50.298;8.514;2023-09-30T00:24:00;98560.0;;;18.6;76.0
69198;BME280;56311;50.298;8.514;2023-09-30T00:26:00;98560.0;;;18.4;77.6
69198;BME280;56311;50.298;8.514;2023-09-30T00:28:00;98560.0;;;18.2;77.7
69198;BME280;56311;50.298;8.514;2023-09-30T00:30:00;98570.0;;;18.7;76.4
69198;BME280;56311;50.298;8.514;2023-09-30T00:32:00;98560.0;;;18.6;75.8
69198;BME280;56311;50.298;8.514;2023-09-30T00:34:00;98570.0;;;18.7;75.5
69198;BME280;56311;50.298;8.514;2023-09-30T00:36:05;98580.0;;;18.6;75.6
69198;BME280;56311;50.298;8.514;2023-09-30T00:38:00;98580.0;;;18.5;76.4
69198;BME280;56311;50.298;8.514;2023-09-30T00:40:00;98590.0;;;18.2;77.3
69198;BME280;56311;50.298;8.514;2023-09-30T00:42:00;98580.0;;;18.5;76.9
69198;BME280;56311;50.298;8.514;2023-09-30T00:44:00;98580.0;;;18.2;77.0
69198;BME280;56311;50.298;8.514;2023-09-30T00:46:02;98580.0;;;18.5;76.2
69198;BME280;56311;50.298;8.514;2023-09-30T00:48:01;98580.0;;;18.7;75.6
69198;BME280;56311;50.298;8.514;2023-09-30T00:50:00;98580.0;;;18.7;75.0
69198;BME280;56311;50.298;8.514;2023-09-30T00:52:00;98580.0;;;18.8;76.4
69198;BME280;56311;50.298;8.514;2023-09-30T00:54:01;98590.0;;;19.0;75.3
69198;BME280;56311;50.298;8.514;2023-09-30T00:56:00;98590.0;;;19.1;73.7
69198;BME280;56311;50.298;8.514;2023-09-30T00:58:00;98590.0;;;19.3;72.2
69198;BME280;56311;50.298;8.514;2023-09-30T01:00:00;98590.0;;;18.9;71.9
69198;BME280;56311;50.298;8.514;2023-09-30T01:02:01;98590.0;;;18.7;73.3
69198;BME280;56311;50.298;8.514;2023-09-30T01:04:00;98590.0;;;18.6;73.5
69198;BME280;56311;50.298;8.514;2023-09-30T01:06:00;98590.0;;;18.8;72.6
69198;BME280;56311;50.298;8.514;2023-09-30T01:08:01;98590.0;;;18.8;72.2
69198;BME280;56311;50.298;8.514;2023-09-30T01:10:00;98600.0;;;18.6;72.3
69198;BME280;56311;50.298;8.514;2023-09-30T01:12:00;98600.0;;;18.6;72.1
69198;BME280;56311;50.298;8.514;2023-09-30T01:14:00;98610.0;;;18.5;72.0
69198;BME280;56311;50.298;8.514;2023-09-30T01:16:02;98610.0;;;18.1;73.0
69198;BME280;56311;50.298;8.514;2023-09-30T01:18:00;98620.0;;;17.8;74.1
69198;BME280;56311;50.298;8.514;2023-09-30T01:20:01;98620.0;;;18.0;73.5
69198;BME280;56311;50.298;8.514;2023-09-30T01:22:00;98620.0;;;18.3;72.7
69198;BME280;56311;50.298;8.514;2023-09-30T01:24:00;98620.0;;;18.0;72.6
69198;BME280;56311;50.298;8.514;2023-09-30T01:26:01;98630.0;;;18.1;72.2
69198;BME280;56311;50.298;8.514;2023-09-30T01:28:00;98630.0;;;18.3;71.8
69198;BME280;56311;50.298;8.514;2023-09-30T01:30:00;98630.0;;;18.3;71.7
69198;BME280;56311;50.298;8.514;2023-09-30T01:32:00;98630.0;;;18.4;71.1
69198;BME280;56311;50.298;8.514;2023-09-30T01:34:00;98620.0;;;18.5;71.3
69198;BME280;56311;50.298;8.514;2023-09-30T01:36:00;98620.0;;;18.5;71.3
69198;BME280;56311;50.298;8.514;2023-09-30T01:38:00;98620.0;;;18.5;71.2
69198;BME280;56311;50.298;8.514;2023-09-30T01:40:00;98630.0;;;18.2;71.3
69198;BME280;56311;50.298;8.514;2023-09-30T01:42:00;98630.0;;;17.9;72.0
69198;BME280;56311;50.298;8.514;2023-09-30T01:44:00;98630.0;;;18.0;72.1
69198;BME280;56311;50.298;8.514;2023-09-30T01:46:01;98620.0;;;18.2;71.4
69198;BME280;56311;50.298;8.514;2023-09-30T01:48:00;98620.0;;;18.1;71.1
69198;BME280;56311;50.298;8.514;2023-09-30T01:50:00;98610.0;;;18.1;71.4
69198;BME280;56311;50.298;8.514;2023-09-30T01:52:00;98610.0;;;18.1;71.4
69198;BME280;56311;50.298;8.514;2023-09-30T01:54:00;98610.0;;;18.0;71.4
69198;BME280;56311;50.298;8.514;2023-09-30T01:56:00;98620.0;;;18.1;71.5
69198;BME280;56311;50.298;8.514;2023-09-30T01:58:00;98610.0;;;18.2;71.1
69198;BME280;56311;50.298;8.514;2023-09-30T02:00:00;98610.0;;;18.2;71.3
69198;BME280;56311;50.298;8.514;2023-09-30T02:02:00;98600.0;;;18.1;71.0
69198;BME280;56311;50.298;8.514;2023-09-30T02:04:00;98610.0;;;18.1;71.6
69198;BME280;56311;50.298;8.514;2023-09-30T02:06:00;98620.0;;;17.9;72.2
69198;BME280;56311;50.298;8.514;2023-09-30T02:08:00;98620.0;;;17.8;72.7
69198;BME280;56311;50.298;8.514;2023-09-30T02:10:00;98620.0;;;17.8;72.8
69198;BME280;56311;50.298;8.514;2023-09-30T02:12:00;98630.0;;;17.9;72.5
69198;BME280;56311;50.298;8.514;2023-09-30T02:14:01;98630.0;;;17.9;72.7
69198;BME280;56311;50.298;8.514;2023-09-30T02:16:00;98620.0;;;17.5;73.9
69198;BME280;56311;50.298;8.514;2023-09-30T02:18:00;98630.0;;;17.9;73.5
69198;BME280;56311;50.298;8.514;2023-09-30T02:20:00;98630.0;;;17.7;73.9
69198;BME280;56311;50.298;8.514;2023-09-30T02:22:00;98640.0;;;17.9;73.9
69198;BME280;56311;50.298;8.514;2023-09-30T02:24:00;98640.0;;;17.9;73.6
69198;BME280;56311;50.298;8.514;2023-09-30T02:26:00;98640.0;;;17.4;74.8
69198;BME280;56311;50.298;8.514;2023-09-30T02:28:00;98640.0;;;17.4;75.3
69198;BME280;56311;50.298;8.514;2023-09-30T02:30:00;98640.0;;;17.6;74.3
69198;BME280;56311;50.298;8.514;2023-09-30T02:32:00;98630.0;;;17.8;73.7
69198;BME280;56311;50.298;8.514;2023-09-30T02:34:00;98630.0;;;17.5;74.8
69198;BME280;56311;50.298;8.514;2023-09-30T02:36:00;98630.0;;;17.7;74.2
69198;BME280;56311;50.298;8.514;2023-09-30T02:38:00;98630.0;;;17.6;74.5
69198;BME280;56311;50.298;8.514;2023-09-30T02:40:00;98630.0;;;17.6;74.7
69198;BME280;56311;50.298;8.514;2023-09-30T02:42:00;98620.0;;;17.7;74.2
69198;BME280;56311;50.298;8.514;2023-09-30T02:44:00;98620.0;;;17.8;74.1
69198;BME280;56311;50.298;8.514;2023-09-30T02:46:00;98630.0;;;17.8;74.3
69198;BME280;56311;50.298;8.514;2023-09-30T02:48:00;98630.0;;;17.7;74.5
69198;BME280;56311;50.298;8.514;2023-09-30T02:50:01;98630.0;;;17.7;74.5
69198;BME280;56311;50.298;8.514;2023-09-30T02:52:00;98640.0;;;17.6;74.2
69198;BME280;56311;50.298;8.514;2023-09-30T02:54:00;98650.0;;;17.8;73.8
69198;BME280;56311;50.298;8.514;2023-09-30T02:56:00;98650.0;;;17.8;73.7
69198;BME280;56311;50.298;8.514;2023-09-30T02:58:01;98650.0;;;17.9;73.3
69198;BME280;56311;50.298;8.514;2023-09-30T03:00:00;98650.0;;;17.8;73.9
69198;BME280;56311;50.298;8.514;2023-09-30T03:02:00;98640.0;;;17.6;74.2
69198;BME280;56311;50.298;8.514;2023-09-30T03:04:00;98640.0;;;17.7;74.0
69198;BME280;56311;50.298;8.514;2023-09-30T03:06:00;98630.0;;;17.7;74.2
69198;BME280;56311;50.298;8.514;2023-09-30T03:08:00;98630.0;;;17.6;74.0
69198;BME280;56311;50.298;8.514;2023-09-30T03:10:00;98630.0;;;17.6;73.3
69198;BME280;56311;50.298;8.514;2023-09-30T03:12:02;98630.0;;;17.5;73.5
69198;BME280;56311;50.298;8.514;2023-09-30T03:14:01;98630.0;;;17.6;72.9
69198;BME280;56311;50.298;8.514;2023-09-30T03:16:00;98640.0;;;17.8;72.5
69198;BME280;56311;50.298;8.514;2023-09-30T03:18:00;98630.0;;;17.8;72.2
69198;BME280;56311;50.298;8.514;2023-09-30T03:20:01;98630.0;;;17.7;72.7
69198;BME280;56311;50.298;8.514;2023-09-30T03:22:01;98620.0;;;17.6;72.9
69198;BME280;56311;50.298;8.514;2023-09-30T03:24:03;98610.0;;;17.4;73.7
69198;BME280;56311;50.298;8.514;2023-09-30T03:26:00;98620.0;;;17.3;74.0
69198;BME280;56311;50.298;8.514;2023-09-30T03:28:00;98620.0;;;17.3;73.5
69198;BME280;56311;50.298;8.514;2023-09-30T03:30:02;98620.0;;;17.3;73.6
69198;BME280;56311;50.298;8.514;2023-09-30T03:32:01;98630.0;;;17.4;73.4
69198;BME280;56311;50.298;8.514;2023-09-30T03:34:00;98650.0;;;17.4;73.3
69198;BME280;56311;50.298;8.514;2023-09-30T03:36:01;98660.0;;;17.3;73.7
69198;BME280;56311;50.298;8.514;2023-09-30T03:38:00;98660.0;;;17.3;73.7
69198;BME280;56311;50.298;8.514;2023-09-30T03:40:00;98660.0;;;17.4;73.8
69198;BME280;56311;50.298;8.514;2023-09-30T03:42:00;98660.0;;;17.4;73.6
69198;BME280;56311;50.298;8.514;2023-09-30T03:44:02;98660.0;;;17.3;73.4
69198;BME280;56311;50.298;8.514;2023-09-30T03:46:00;98650.0;;;17.3;73.7
69198;BME280;56311;50.298;8.514;2023-09-30T03:48:01;98660.0;;;17.3;73.9
69198;BME280;56311;50.298;8.514;2023-09-30T03:50:00;98670.0;;;17.4;73.7
69198;BME280;56311;50.298;8.514;2023-09-30T03:52:00;98670.0;;;17.4;73.6
69198;BME280;56311;50.298;8.514;2023-09-30T03:54:00;98670.0;;;17.4;73.3
69198;BME280;56311;50.298;8.514;2023-09-30T03:56:01;98670.0;;;17.4;73.4
69198;BME280;56311;50.298;8.514;2023-09-30T03:58:00;98670.0;;;17.5;72.8
69198;BME280;56311;50.298;8.514;2023-09-30T04:00:01;98670.0;;;17.5;72.6
69198;BME280;56311;50.298;8.514;2023-09-30T04:02:00;98660.0;;;17.6;72.5
69198;BME280;56311;50.298;8.514;2023-09-30T04:04:00;98660.0;;;17.5;72.6
69198;BME280;56311;50.298;8.514;2023-09-30T04:06:01;98650.0;;;17.5;72.7
69198;BME280;56311;50.298;8.514;2023-09-30T04:08:00;98650.0;;;17.4;72.8
69198;BME280;56311;50.298;8.514;2023-09-30T04:10:00;98650.0;;;17.4;72.5
69198;BME280;56311;50.298;8.514;2023-09-30T04:12:00;98650.0;;;17.4;72.6
69198;BME280;56311;50.298;8.514;2023-09-30T04:14:01;98660.0;;;17.4;72.1
69198;BME280;56311;50.298;8.514;2023-09-30T04:16:01;98660.0;;;17.4;72.2
69198;BME280;56311;50.298;8.514;2023-09-30T04:18:01;98660.0;;;17.2;72.5
69198;BME280;56311;50.298;8.514;2023-09-30T04:20:00;98670.0;;;17.2;72.5
69198;BME280;56311;50.298;8.514;2023-09-30T04:22:00;98670.0;;;17.3;72.1
69198;BME280;56311;50.298;8.514;2023-09-30T04:24:00;98660.0;;;17.3;72.2
69198;BME280;56311;50.298;8.514;2023-09-30T04:26:00;98670.0;;;17.2;72.6
69198;BME280;56311;50.298;8.514;2023-09-30T04:28:00;98670.0;;;17.2;72.6
69198;BME280;56311;50.298;8.514;2023-09-30T04:30:01;98670.0;;;17.0;73.0
69198;BME280;56311;50.298;8.514;2023-09-30T04:32:00;98680.0;;;17.0;73.1
69198;BME280;56311;50.298;8.514;2023-09-30T04:34:00;98690.0;;;16.3;75.8
69198;BME280;56311;50.298;8.514;2023-09-30T04:36:00;98690.0;;;16.4;76.0
69198;BME280;56311;50.298;8.514;2023-09-30T04:38:00;98700.0;;;16.4;76.2
69198;BME280;56311;50.298;8.514;2023-09-30T04:40:00;98690.0;;;16.4;75.9
69198;BME280;56311;50.298;8.514;2023-09-30T04:42:00;98700.0;;;16.3;76.0
69198;BME280;56311;50.298;8.514;2023-09-30T04:44:00;98700.0;;;16.4;75.7
69198;BME280;56311;50.298;8.514;2023-09-30T04:46:00;98700.0;;;16.1;75.9
69198;BME280;56311;50.298;8.514;2023-09-30T04:48:01;98700.0;;;16.3;75.8
69198;BME280;56311;50.298;8.514;2023-09-30T04:50:00;98690.0;;;16.5;74.4
69198;BME280;56311;50.298;8.514;2023-09-30T04:52:00;98700.0;;;16.5;74.3
69198;BME280;56311;50.298;8.514;2023-09-30T04:54:00;98700.0;;;16.2;74.8
69198;BME280;56311;50.298;8.514;2023-09-30T04:56:00;98690.0;;;16.1;75.1
69198;BME280;56311;50.298;8.514;2023-09-30T04:58:00;98690.0;;;16.0;75.7
69198;BME280;56311;50.298;8.514;2023-09-30T05:00:00;98690.0;;;16.1;75.2
69198;BME280;56311;50.298;8.514;2023-09-30T05:02:00;98680.0;;;16.0;75.5
69198;BME280;56311;50.298;8.514;2023-09-30T05:04:00;98680.0;;;16.0;75.4
69198;BME280;56311;50.298;8.514;2023-09-30T05:06:01;98680.0;;;15.9;75.6
69198;BME280;56311;50.298;8.514;2023-09-30T05:08:00;98680.0;;;15.9;75.3
69198;BME280;56311;50.298;8.514;2023-09-30T05:10:01;98690.0;;;16.0;74.9
69198;BME280;56311;50.298;8.514;2023-09-30T05:12:00;98680.0;;;15.8;74.8
69198;BME280;56311;50.298;8.514;2023-09-30T05:14:00;98680.0;;;15.4;75.8
69198;BME280;56311;50.298;8.514;2023-09-30T05:16:00;98680.0;;;15.3;76.4
69198;BME280;56311;50.298;8.514;2023-09-30T05:18:00;98680.0;;;15.2;77.0
69198;BME280;56311;50.298;8.514;2023-09-30T05:20:00;98680.0;;;14.9;78.0
69198;BME280;56311;50.298;8.514;2023-09-30T05:22:00;98690.0;;;15.0;77.7
69198;BME280;56311;50.298;8.514;2023-09-30T05:24:01;98690.0;;;15.1;77.1
69198;BME280;56311;50.298;8.514;2023-09-30T05:26:00;98690.0;;;15.1;77.2
69198;BME280;56311;50.298;8.514;2023-09-30T05:28:03;98690.0;;;15.0;77.3
69198;BME280;56311;50.298;8.514;2023-09-30T05:30:00;98690.0;;;15.0;77.6
69198;BME280;56311;50.298;8.514;2023-09-30T05:32:00;98700.0;;;15.0;77.4
69198;BME280;56311;50.298;8.514;2023-09-30T05:34:00;98700.0;;;14.9;78.1
69198;BME280;56311;50.298;8.514;2023-09-30T05:36:00;98700.0;;;15.0;78.0
69198;BME280;56311;50.298;8.514;2023-09-30T05:38:00;98710.0;;;14.8;78.1
69198;BME280;56311;50.298;8.514;2023-09-30T05:40:00;98710.0;;;14.5;79.5
69198;BME280;56311;50.298;8.514;2023-09-30T05:42:00;98710.0;;;14.5;79.2
69198;BME280;56311;50.298;8.514;2023-09-30T05:44:00;98700.0;;;14.5;79.3
69198;BME280;56311;50.298;8.514;2023-09-30T05:46:00;98710.0;;;14.6;79.0
69198;BME280;56311;50.298;8.514;2023-09-30T05:48:01;98720.0;;;14.6;79.3
69198;BME280;56311;50.298;8.514;2023-09-30T05:50:01;98710.0;;;14.5;79.6
69198;BME280;56311;50.298;8.514;2023-09-30T05:52:00;98710.0;;;14.5;79.6
69198;BME280;56311;50.298;8.514;2023-09-30T05:54:00;98720.0;;;14.5;79.8
69198;BME280;56311;50.298;8.514;2023-09-30T05:56:00;98720.0;;;14.6;79.3
69198;BME280;56311;50.298;8.514;2023-09-30T05:58:00;98720.0;;;14.6;79.2
69198;BME280;56311;50.298;8.514;2023-09-30T06:00:01;98710.0;;;14.5;79.5
69198;BME280;56311;50.298;8.514;2023-09-30T06:02:00;98710.0;;;14.4;79.9
69198;BME280;56311;50.298;8.514;2023-09-30T06:04:00;98720.0;;;14.6;79.5
69198;BME280;56311;50.298;8.514;2023-09-30T06:06:00;98730.0;;;14.6;78.9
69198;BME280;56311;50.298;8.514;2023-09-30T06:08:03;98730.0;;;14.7;78.3
69198;BME280;56311;50.298;8.514;2023-09-30T06:10:00;98730.0;;;14.7;78.2
69198;BME280;56311;50.298;8.514;2023-09-30T06:12:01;98730.0;;;14.8;78.1
69198;BME280;56311;50.298;8.514;2023-09-30T06:14:00;98730.0;;;14.8;77.9
69198;BME280;56311;50.298;8.514;2023-09-30T06:16:00;98730.0;;;14.8;77.9
69198;BME280;56311;50.298;8.514;2023-09-30T06:18:00;98740.0;;;14.9;77.3
69198;BME280;56311;50.298;8.514;2023-09-30T06:20:00;98740.0;;;15.1;77.0
69198;BME280;56311;50.298;8.514;2023-09-30T06:22:00;98740.0;;;15.2;76.5
69198;BME280;56311;50.298;8.514;2023-09-30T06:24:01;98750.0;;;15.4;75.9
69198;BME280;56311;50.298;8.514;2023-09-30T06:26:00;98750.0;;;15.6;75.0
69198;BME280;56311;50.298;8.514;2023-09-30T06:28:00;98750.0;;;15.6;74.7
69198;BME280;56311;50.298;8.514;2023-09-30T06:30:01;98750.0;;;15.4;76.2
69198;BME280;56311;50.298;8.514;2023-09-30T06:32:00;98740.0;;;15.3;76.8
69198;BME280;56311;50.298;8.514;2023-09-30T06:34:00;98740.0;;;15.4;76.6
69198;BME280;56311;50.298;8.514;2023-09-30T06:36:00;98750.0;;;15.3;76.6
69198;BME280;56311;50.298;8.514;2023-09-30T06:38:00;98750.0;;;15.4;76.3
69198;BME280;56311;50.298;8.514;2023-09-30T06:40:00;98750.0;;;15.2;77.1
69198;BME280;56311;50.298;8.514;2023-09-30T06:42:00;98750.0;;;15.2;77.4
69198;BME280;56311;50.298;8.514;2023-09-30T06:44:00;98760.0;;;15.3;77.4
69198;BME280;56311;50.298;8.514;2023-09-30T06:46:05;98750.0;;;15.3;77.2
69198;BME280;56311;50.298;8.514;2023-09-30T06:48:01;98760.0;;;15.3;76.9
69198;BME280;56311;50.298;8.514;2023-09-30T06:50:00;98770.0;;;15.2;77.0
69198;BME280;56311;50.298;8.514;2023-09-30T06:52:00;98770.0;;;15.4;77.2
69198;BME280;56311;50.298;8.514;2023-09-30T06:54:00;98760.0;;;15.5;76.8
69198;BME280;56311;50.298;8.514;2023-09-30T06:56:04;98760.0;;;15.7;76.4
69198;BME280;56311;50.298;8.514;2023-09-30T06:58:00;98750.0;;;15.6;76.5
69198;BME280;56311;50.298;8.514;2023-09-30T07:00:01;98760.0;;;15.8;76.6
69198;BME280;56311;50.298;8.514;2023-09-30T07:02:01;98760.0;;;16.0;76.5
69198;BME280;56311;50.298;8.514;2023-09-30T07:04:00;98760.0;;;16.1;75.9
69198;BME280;56311;50.298;8.514;2023-09-30T07:06:00;98760.0;;;16.1;75.7
69198;BME280;56311;50.298;8.514;2023-09-30T07:08:00;98760.0;;;15.9;76.0
69198;BME280;56311;50.298;8.514;2023-09-30T07:10:00;98770.0;;;16.0;76.2
69198;BME280;56311;50.298;8.514;2023-09-30T07:12:00;98770.0;;;16.2;75.6
69198;BME280;56311;50.298;8.514;2023-09-30T07:14:01;98780.0;;;16.2;75.2
69198;BME280;56311;50.298;8.514;2023-09-30T07:16:00;98770.0;;;16.4;75.1
69198;BME280;56311;50.298;8.514;2023-09-30T07:18:00;98770.0;;;16.5;75.0
69198;BME280;56311;50.298;8.514;2023-09-30T07:20:00;98770.0;;;16.5;73.9
69198;BME280;56311;50.298;8.514;2023-09-30T07:22:00;98760.0;;;16.6;73.0
69198;BME280;56311;50.298;8.514;2023-09-30T07:24:00;98770.0;;;16.3;73.3
69198;BME280;56311;50.298;8.514;2023-09-30T07:26:00;98780.0;;;16.5;72.8
69198;BME280;56311;50.298;8.514;2023-09-30T07:28:00;98780.0;;;16.5;72.4
69198;BME280;56311;50.298;8.514;2023-09-30T07:30:00;98780.0;;;16.9;71.8
69198;BME280;56311;50.298;8.514;2023-09-30T07:32:00;98780.0;;;17.3;70.7
69198;BME280;56311;50.298;8.514;2023-09-30T07:34:01;98780.0;;;17.0;70.0
69198;BME280;56311;50.298;8.514;2023-09-30T07:36:00;98790.0;;;17.0;71.3
69198;BME280;56311;50.298;8.514;2023-09-30T07:38:00;98770.0;;;17.4;70.6
69198;BME280;56311;50.298;8.514;2023-09-30T07:40:00;98760.0;;;17.5;69.0
69198;BME280;56311;50.298;8.514;2023-09-30T07:42:01;98770.0;;;17.6;69.3
69198;BME280;56311;50.298;8.514;2023-09-30T07:44:00;98770.0;;;17.1;69.7
69198;BME280;56311;50.298;8.514;2023-09-30T07:46:05;98770.0;;;17.5;69.1
69198;BME280;56311;50.298;8.514;2023-09-30T07:48:00;98770.0;;;18.0;68.1
69198;BME280;56311;50.298;8.514;2023-09-30T07:50:00;98770.0;;;17.8;67.7
69198;BME280;56311;50.298;8.514;2023-09-30T07:52:00;98770.0;;;17.1;69.8
69198;BME280;56311;50.298;8.514;2023-09-30T07:54:00;98770.0;;;17.5;69.2
69198;BME280;56311;50.298;8.514;2023-09-30T07:56:01;98760.0;;;17.8;68.5
69198;BME280;56311;50.298;8.514;2023-09-30T07:58:00;98770.0;;;18.2;68.8
69198;BME280;56311;50.298;8.514;2023-09-30T08:00:00;98760.0;;;18.3;67.3
69198;BME280;56311;50.298;8.514;2023-09-30T08:02:00;98760.0;;;18.6;66.6
69198;BME280;56311;50.298;8.514;2023-09-30T08:04:00;98750.0;;;18.6;67.1
69198;BME280;56311;50.298;8.514;2023-09-30T08:06:00;98750.0;;;18.4;66.0
69198;BME280;56311;50.298;8.514;2023-09-30T08:08:01;98760.0;;;17.9;66.3
69198;BME280;56311;50.298;8.514;2023-09-30T08:10:00;98770.0;;;18.0;65.5
69198;BME280;56311;50.298;8.514;2023-09-30T08:12:00;98780.0;;;18.2;65.1
69198;BME280;56311;50.298;8.514;2023-09-30T08:14:00;98780.0;;;18.0;66.7
69198;BME280;56311;50.298;8.514;2023-09-30T08:16:00;98780.0;;;18.4;66.9
69198;BME280;56311;50.298;8.514;2023-09-30T08:18:00;98780.0;;;18.5;67.3
69198;BME280;56311;50.298;8.514;2023-09-30T08:20:00;98780.0;;;18.1;65.9
69198;BME280;56311;50.298;8.514;2023-09-30T08:22:00;98780.0;;;18.2;66.2
69198;BME280;56311;50.298;8.514;2023-09-30T08:24:01;98780.0;;;18.4;65.4
69198;BME280;56311;50.298;8.514;2023-09-30T08:26:00;98780.0;;;18.6;65.2
69198;BME280;56311;50.298;8.514;2023-09-30T08:28:00;98790.0;;;19.1;63.8
69198;BME280;56311;50.298;8.514;2023-09-30T08:30:00;98790.0;;;19.0;64.9
69198;BME280;56311;50.298;8.514;2023-09-30T08:32:00;98790.0;;;18.8;64.4
69198;BME280;56311;50.298;8.514;2023-09-30T08:34:00;98790.0;;;18.9;64.2
69198;BME280;56311;50.298;8.514;2023-09-30T08:36:02;98790.0;;;18.9;64.2
69198;BME280;56311;50.298;8.514;2023-09-30T08:38:00;98790.0;;;18.7;65.0
69198;BME280;56311;50.298;8.514;2023-09-30T08:40:00;98800.0;;;19.1;65.9
69198;BME280;56311;50.298;8.514;2023-09-30T08:42:01;98800.0;;;18.9;66.8
69198;BME280;56311;50.298;8.514;2023-09-30T08:44:01;98810.0;;;19.9;63.9
69198;BME280;56311;50.298;8.514;2023-09-30T08:46:02;98800.0;;;20.1;63.8
69198;BME280;56311;50.298;8.514;2023-09-30T08:48:00;98810.0;;;19.6;62.5
69198;BME280;56311;50.298;8.514;2023-09-30T08:50:00;98810.0;;;19.1;63.0
69198;BME280;56311;50.298;8.514;2023-09-30T08:52:02;98810.0;;;19.0;63.3
69198;BME280;56311;50.298;8.514;2023-09-30T08:54:00;98800.0;;;19.2;62.4
69198;BME280;56311;50.298;8.514;2023-09-30T08:56:01;98790.0;;;18.8;62.1
69198;BME280;56311;50.298;8.514;2023-09-30T08:58:01;98800.0;;;18.9;60.9
69198;BME280;56311;50.298;8.514;2023-09-30T09:00:00;98810.0;;;19.0;62.4
69198;BME280;56311;50.298;8.514;2023-09-30T09:02:00;98800.0;;;18.5;63.5
69198;BME280;56311;50.298;8.514;2023-09-30T09:04:00;98810.0;;;19.3;61.2
69198;BME280;56311;50.298;8.514;2023-09-30T09:06:00;98820.0;;;19.6;60.7
69198;BME280;56311;50.298;8.514;2023-09-30T09:08:00;98820.0;;;19.4;60.8
69198;BME280;56311;50.298;8.514;2023-09-30T09:10:04;98830.0;;;19.9;58.6
69198;BME280;56311;50.298;8.514;2023-09-30T09:12:00;98830.0;;;20.2;58.8
69198;BME280;56311;50.298;8.514;2023-09-30T09:14:00;98820.0;;;20.0;58.6
69198;BME280;56311;50.298;8.514;2023-09-30T09:16:08;98820.0;;;20.2;58.3
69198;BME280;56311;50.298;8.514;2023-09-30T09:18:00;98830.0;;;20.5;58.3
69198;BME280;56311;50.298;8.514;2023-09-30T09:20:00;98830.0;;;20.8;58.0
69198;BME280;56311;50.298;8.514;2023-09-30T09:22:02;98830.0;;;20.5;57.2
69198;BME280;56311;50.298;8.514;2023-09-30T09:24:00;98830.0;;;20.3;57.1
69198;BME280;56311;50.298;8.514;2023-09-30T09:26:01;98830.0;;;20.6;56.4
69198;BME280;56311;50.298;8.514;2023-09-30T09:28:00;98820.0;;;20.1;58.5
69198;BME280;56311;50.298;8.514;2023-09-30T09:30:14;98820.0;;;19.9;59.5
69198;BME280;56311;50.298;8.514;2023-09-30T09:32:11;98830.0;;;19.8;60.3
69198;BME280;56311;50.298;8.514;2023-09-30T09:34:01;98830.0;;;20.8;60.6
69198;BME280;56311;50.298;8.514;2023-09-30T09:36:00;98830.0;;;20.8;58.2
69198;BME280;56311;50.298;8.514;2023-09-30T09:38:01;98830.0;;;21.0;57.4
69198;BME280;56311;50.298;8.514;2023-09-30T09:40:00;98830.0;;;20.5;58.6
69198;BME280;56311;50.298;8.514;2023-09-30T09:42:00;98830.0;;;20.6;59.0
69198;BME280;56311;50.298;8.514;2023-09-30T09:44:00;98830.0;;;20.3;59.8
69198;BME280;56311;50.298;8.514;2023-09-30T09:46:00;98840.0;;;20.1;60.8
69198;BME280;56311;50.298;8.514;2023-09-30T09:48:01;98840.0;;;20.7;59.1
69198;BME280;56311;50.298;8.514;2023-09-30T09:50:03;98840.0;;;20.2;60.8
69198;BME280;56311;50.298;8.514;2023-09-30T09:52:00;98830.0;;;20.7;58.9
69198;BME280;56311;50.298;8.514;2023-09-30T09:54:02;98830.0;;;20.6;58.2
69198;BME280;56311;50.298;8.514;2023-09-30T09:56:00;98820.0;;;20.1;59.5
69198;BME280;56311;50.298;8.514;2023-09-30T09:58:02;98820.0;;;20.1;60.0
69198;BME280;56311;50.298;8.514;2023-09-30T10:00:01;98810.0;;;20.8;58.5
69198;BME280;56311;50.298;8.514;2023-09-30T10:02:01;98800.0;;;20.6;57.3
69198;BME280;56311;50.298;8.514;2023-09-30T10:04:00;98800.0;;;21.2;54.8
69198;BME280;56311;50.298;8.514;2023-09-30T10:06:00;98790.0;;;20.5;56.2
69198;BME280;56311;50.298;8.514;2023-09-30T10:08:03;98790.0;;;20.4;56.2
69198;BME280;56311;50.298;8.514;2023-09-30T10:10:02;98790.0;;;20.8;55.3
69198;BME280;56311;50.298;8.514;2023-09-30T10:12:01;98780.0;;;21.5;54.7
69198;BME280;56311;50.298;8.514;2023-09-30T10:14:00;98790.0;;;21.7;52.6
69198;BME280;56311;50.298;8.514;2023-09-30T10:16:00;98790.0;;;22.0;52.2
69198;BME280;56311;50.298;8.514;2023-09-30T10:18:01;98780.0;;;22.4;52.0
69198;BME280;56311;50.298;8.514;2023-09-30T10:20:05;98770.0;;;22.3;52.5
69198;BME280;56311;50.298;8.514;2023-09-30T10:26:14;98780.0;;;21.4;52.5
69198;BME280;56311;50.298;8.514;2023-09-30T10:30:06;98790.0;;;22.5;51.9
69198;BME280;56311;50.298;8.514;2023-09-30T10:32:00;98790.0;;;21.9;52.4
69198;BME280;56311;50.298;8.514;2023-09-30T10:36:01;98790.0;;;21.8;53.2
69198;BME280;56311;50.298;8.514;2023-09-30T10:40:00;98800.0;;;22.1;51.8
69198;BME280;56311;50.298;8.514;2023-09-30T10:42:00;98800.0;;;22.1;53.4
69198;BME280;56311;50.298;8.514;2023-09-30T10:46:00;98790.0;;;22.9;50.5
69198;BME280;56311;50.298;8.514;2023-09-30T10:50:00;98790.0;;;22.8;52.0
69198;BME280;56311;50.298;8.514;2023-09-30T10:52:00;98780.0;;;21.6;51.3
69198;BME280;56311;50.298;8.514;2023-09-30T10:54:01;98780.0;;;22.3;52.1
69198;BME280;56311;50.298;8.514;2023-09-30T10:56:00;98780.0;;;22.8;49.7
69198;BME280;56311;50.298;8.514;2023-09-30T10:58:00;98780.0;;;23.1;48.5
69198;BME280;56311;50.298;8.514;2023-09-30T11:00:07;98780.0;;;23.0;45.6
69198;BME280;56311;50.298;8.514;2023-09-30T11:02:00;98780.0;;;23.1;48.4
69198;BME280;56311;50.298;8.514;2023-09-30T11:04:03;98780.0;;;22.9;48.4
69198;BME280;56311;50.298;8.514;2023-09-30T11:06:00;98780.0;;;23.3;45.7
69198;BME280;56311;50.298;8.514;2023-09-30T11:08:02;98790.0;;;23.5;46.4
69198;BME280;56311;50.298;8.514;2023-09-30T11:10:01;98790.0;;;22.8;46.9
69198;BME280;56311;50.298;8.514;2023-09-30T11:12:00;98800.0;;;22.9;47.9
69198;BME280;56311;50.298;8.514;2023-09-30T11:14:00;98800.0;;;21.9;49.3